Time;durP1;ratioP1;P1;durP2;ratioP2;P2;SDS_P1;SDS_P2;PMS_P1;PMS_P2;Temp;Humidity;BMP_temperature;BMP_pressure;BME280_temperature;BME280_humidity;BME280_pressure;Samples;Min_cycle;Max_cycle;Signal;HPM_P1;HPM_P2
2021/12/02 00:01:19;;;;;;;2.88;1.02;;;20.80;47.60;;;;;;6217959;28;20033;-69
2021/12/02 00:04:20;;;;;;;2.15;1.02;;;20.90;47.60;;;;;;6195846;28;20022;-69
2021/12/02 00:07:20;;;;;;;1.55;0.70;;;20.80;47.70;;;;;;6193604;28;20045;-69
2021/12/02 00:10:26;;;;;;;2.25;0.90;;;20.80;47.60;;;;;;6218974;28;20026;-70
2021/12/02 00:13:29;;;;;;;2.45;1.15;;;20.80;47.50;;;;;;6228802;28;20022;-69
2021/12/02 00:16:39;;;;;;;1.88;0.80;;;20.80;47.50;;;;;;6193501;28;20417;-69
2021/12/02 00:23:29;;;;;;;1.70;1.10;;;20.80;47.60;;;;;;6218398;28;20133;-70
2021/12/02 00:26:32;;;;;;;2.28;1.00;;;20.80;47.50;;;;;;6216862;28;20028;-69
2021/12/02 00:29:35;;;;;;;2.08;1.05;;;20.80;47.40;;;;;;6218469;28;20026;-69
2021/12/02 00:32:42;;;;;;;2.65;1.00;;;20.80;47.50;;;;;;6204980;28;20091;-69
2021/12/02 00:35:43;;;;;;;1.48;0.80;;;20.80;47.60;;;;;;6217373;28;20053;-69
2021/12/02 00:38:46;;;;;;;1.80;0.75;;;20.80;47.70;;;;;;6195941;28;20030;-70
2021/12/02 00:41:47;;;;;;;1.10;0.70;;;20.80;47.70;;;;;;6194217;28;20023;-69
2021/12/02 00:44:49;;;;;;;2.55;0.82;;;20.80;47.70;;;;;;6192462;28;20543;-70
2021/12/02 00:47:50;;;;;;;1.00;0.60;;;20.80;47.80;;;;;;6204649;28;20061;-69
2021/12/02 00:50:51;;;;;;;1.50;0.70;;;20.80;47.70;;;;;;6233597;28;20022;-69
2021/12/02 00:53:53;;;;;;;1.73;0.70;;;20.80;47.70;;;;;;6216838;28;20026;-69
2021/12/02 00:56:54;;;;;;;1.40;0.75;;;20.80;47.80;;;;;;6217156;28;20022;-69
2021/12/02 00:59:57;;;;;;;2.22;0.93;;;20.80;47.70;;;;;;6218175;28;20026;-70
2021/12/02 01:02:59;;;;;;;1.25;0.80;;;20.80;47.80;;;;;;6217697;28;20026;-69
2021/12/02 01:06:01;;;;;;;0.75;0.57;;;20.80;47.80;;;;;;6220149;28;20373;-70
2021/12/02 01:09:04;;;;;;;1.45;0.75;;;20.80;47.80;;;;;;6205864;28;20582;-69
2021/12/02 01:12:04;;;;;;;1.33;0.80;;;20.80;47.90;;;;;;6197416;28;20041;-69
2021/12/02 01:15:06;;;;;;;1.13;0.70;;;20.80;47.80;;;;;;6199150;28;20050;-69
2021/12/02 01:18:07;;;;;;;1.15;0.80;;;20.80;47.80;;;;;;6204097;28;20033;-69
2021/12/02 01:21:14;;;;;;;2.00;1.13;;;20.80;47.80;;;;;;6222718;28;20022;-69
2021/12/02 01:24:17;;;;;;;0.80;0.70;;;20.80;47.90;;;;;;6222733;28;20060;-70
2021/12/02 01:27:21;;;;;;;0.70;0.70;;;20.80;48.00;;;;;;6221104;28;20293;-69
2021/12/02 01:30:22;;;;;;;1.65;0.75;;;20.80;48.00;;;;;;6209699;28;20475;-69
2021/12/02 01:33:24;;;;;;;1.10;0.70;;;20.80;47.90;;;;;;6210543;28;20036;-69
2021/12/02 01:36:27;;;;;;;0.70;0.50;;;20.80;47.90;;;;;;6222480;28;20479;-70
2021/12/02 01:39:28;;;;;;;0.98;0.70;;;20.80;47.90;;;;;;6221426;28;20029;-69
2021/12/02 01:42:32;;;;;;;2.75;1.10;;;20.80;47.80;;;;;;6222143;28;20049;-69
2021/12/02 01:45:33;;;;;;;1.05;0.70;;;20.80;47.80;;;;;;6220991;28;20052;-69
2021/12/02 01:48:37;;;;;;;0.80;0.50;;;20.80;47.90;;;;;;6222205;28;20026;-69
2021/12/02 01:51:42;;;;;;;1.48;0.90;;;20.80;47.90;;;;;;6219202;28;20026;-69
2021/12/02 01:54:45;;;;;;;;;;;20.80;47.90;;;;;;6196642;28;20061;-69
2021/12/02 01:57:58;;;;;;;1.30;0.60;;;20.80;48.00;;;;;;6197518;28;20319;-69
2021/12/02 02:01:00;;;;;;;1.38;0.90;;;20.80;47.90;;;;;;6196526;28;20026;-69
2021/12/02 02:04:01;;;;;;;1.23;0.55;;;20.80;47.80;;;;;;6195966;28;20049;-69
2021/12/02 02:07:09;;;;;;;1.25;0.68;;;20.70;47.80;;;;;;6197850;28;20025;-69
2021/12/02 02:10:10;;;;;;;0.93;0.68;;;20.70;47.70;;;;;;6220389;28;20037;-69
2021/12/02 02:13:13;;;;;;;0.63;0.60;;;20.70;47.80;;;;;;6218758;28;20173;-69
2021/12/02 02:16:13;;;;;;;0.80;0.70;;;20.70;47.80;;;;;;6196596;28;20065;-69
2021/12/02 02:19:15;;;;;;;1.38;0.80;;;20.70;47.70;;;;;;6211491;28;20030;-70
2021/12/02 02:22:20;;;;;;;1.23;0.63;;;20.70;47.80;;;;;;6220006;28;20030;-69
2021/12/02 02:25:21;;;;;;;1.00;0.65;;;20.70;47.80;;;;;;6221169;28;20035;-69
2021/12/02 02:28:22;;;;;;;0.98;0.60;;;20.70;47.80;;;;;;6221771;28;20018;-69
2021/12/02 02:31:24;;;;;;;0.77;0.60;;;20.70;47.90;;;;;;6197779;28;20084;-69
2021/12/02 02:34:25;;;;;;;1.00;0.75;;;20.70;47.90;;;;;;6219824;28;20018;-69
2021/12/02 02:37:31;;;;;;;1.25;0.60;;;20.70;47.80;;;;;;6216986;28;20431;-69
2021/12/02 02:40:33;;;;;;;1.23;0.70;;;20.70;47.80;;;;;;6219800;28;20535;-70
2021/12/02 02:43:34;;;;;;;1.73;0.70;;;20.70;47.80;;;;;;6220921;28;20033;-69
2021/12/02 02:46:38;;;;;;;0.80;0.60;;;20.80;47.80;;;;;;6234410;28;20085;-69
2021/12/02 02:49:39;;;;;;;0.95;0.68;;;20.70;47.80;;;;;;6196840;28;20058;-69
2021/12/02 02:52:41;;;;;;;0.80;0.57;;;20.70;47.80;;;;;;6196300;28;20026;-69
2021/12/02 02:55:46;;;;;;;1.10;0.70;;;20.70;47.90;;;;;;6196723;28;20023;-70
2021/12/02 02:59:01;;;;;;;0.77;0.57;;;20.70;47.90;;;;;;6195197;28;20018;-69
2021/12/02 03:02:27;;;;;;;1.10;0.70;;;20.70;47.90;;;;;;6198300;28;20065;-69
2021/12/02 03:05:33;;;;;;;0.88;0.70;;;20.70;47.80;;;;;;6214243;28;20034;-69
2021/12/02 03:08:41;;;;;;;0.77;0.50;;;20.70;47.80;;;;;;6196292;28;20527;-69
2021/12/02 03:11:49;;;;;;;2.40;1.10;;;20.70;47.90;;;;;;6196303;28;20124;-69
2021/12/02 03:18:03;;;;;;;0.85;0.50;;;20.70;47.90;;;;;;6205522;28;20427;-69
2021/12/02 03:21:21;;;;;;;1.23;0.52;;;20.70;47.90;;;;;;6220409;28;20112;-69
2021/12/02 03:24:23;;;;;;;1.17;0.70;;;20.70;47.80;;;;;;6220374;28;20525;-69
2021/12/02 03:27:24;;;;;;;0.90;0.50;;;20.70;47.80;;;;;;6219842;28;20064;-70
2021/12/02 03:30:25;;;;;;;1.17;0.70;;;20.70;47.80;;;;;;6214366;28;20022;-69
2021/12/02 03:33:25;;;;;;;1.42;0.60;;;20.70;47.90;;;;;;6210299;28;20038;-69
2021/12/02 03:36:27;;;;;;;0.63;0.63;;;20.70;47.90;;;;;;6197775;28;20058;-69
2021/12/02 03:39:28;;;;;;;1.10;0.50;;;20.70;47.90;;;;;;6220120;28;20014;-69
2021/12/02 03:42:29;;;;;;;1.65;0.70;;;20.70;47.80;;;;;;6209606;28;20026;-70
2021/12/02 03:45:32;;;;;;;0.95;0.60;;;20.70;47.80;;;;;;6194096;28;20030;-69
2021/12/02 03:52:30;;;;;;;0.98;0.68;;;20.70;47.80;;;;;;6219697;28;20033;-70
2021/12/02 03:55:30;;;;;;;0.70;0.60;;;20.70;47.80;;;;;;6219419;28;20025;-69
2021/12/02 03:58:31;;;;;;;1.85;0.68;;;20.70;47.70;;;;;;6219182;28;20033;-70
2021/12/02 04:01:32;;;;;;;1.10;0.68;;;20.60;47.70;;;;;;6219693;28;20037;-69
2021/12/02 04:04:32;;;;;;;1.38;0.90;;;20.70;47.80;;;;;;6219429;28;20065;-69
2021/12/02 04:07:33;;;;;;;1.25;0.50;;;20.60;47.70;;;;;;6215741;28;20038;-69
2021/12/02 04:10:34;;;;;;;1.02;0.60;;;20.60;47.70;;;;;;6193664;28;20026;-69
2021/12/02 04:13:35;;;;;;;0.50;0.30;;;20.60;47.70;;;;;;6194405;28;20022;-69
2021/12/02 04:16:38;;;;;;;0.77;0.55;;;20.60;47.70;;;;;;6209744;28;20547;-69
2021/12/02 04:19:39;;;;;;;0.80;0.50;;;20.60;47.80;;;;;;6210591;28;20080;-69
2021/12/02 04:22:40;;;;;;;1.00;0.73;;;20.60;47.90;;;;;;6218485;28;20475;-70
2021/12/02 04:25:41;;;;;;;1.38;0.80;;;20.60;47.90;;;;;;6203562;28;20503;-69
2021/12/02 04:28:42;;;;;;;1.00;0.60;;;20.60;47.80;;;;;;6218636;28;20026;-70
2021/12/02 04:31:47;;;;;;;0.98;0.60;;;20.60;47.80;;;;;;6196809;28;20503;-70
2021/12/02 04:34:47;;;;;;;0.77;0.60;;;20.70;47.90;;;;;;6218835;28;20025;-70
2021/12/02 04:37:51;;;;;;;1.10;0.50;;;20.60;47.90;;;;;;6217260;28;20068;-69
2021/12/02 04:40:52;;;;;;;1.42;0.77;;;20.60;47.90;;;;;;6217490;28;20049;-70
2021/12/02 04:43:52;;;;;;;0.50;0.40;;;20.60;47.80;;;;;;6218610;28;20048;-70
2021/12/02 04:46:53;;;;;;;0.65;0.50;;;20.60;47.80;;;;;;6218092;28;20030;-70
2021/12/02 04:49:54;;;;;;;1.30;0.60;;;20.60;47.90;;;;;;6218418;28;20033;-70
2021/12/02 04:52:54;;;;;;;1.15;0.60;;;20.60;47.90;;;;;;6206442;28;20026;-70
2021/12/02 04:55:55;;;;;;;0.95;0.52;;;20.60;47.80;;;;;;6194092;28;20104;-70
2021/12/02 04:58:55;;;;;;;0.57;0.45;;;20.60;47.80;;;;;;6194723;28;20097;-70
2021/12/02 05:01:56;;;;;;;1.05;0.60;;;20.60;47.80;;;;;;6196384;28;20117;-70
2021/12/02 05:04:57;;;;;;;0.55;0.50;;;20.60;47.90;;;;;;6233734;28;20041;-70
2021/12/02 05:07:59;;;;;;;0.40;0.40;;;20.60;47.90;;;;;;6218025;28;20030;-70
2021/12/02 05:11:00;;;;;;;0.73;0.40;;;20.60;47.90;;;;;;6218146;28;20030;-70
2021/12/02 05:14:01;;;;;;;0.82;0.50;;;20.60;47.90;;;;;;6223788;28;20029;-70
2021/12/02 05:17:02;;;;;;;0.80;0.50;;;20.60;47.90;;;;;;6193892;28;20482;-70
2021/12/02 05:20:05;;;;;;;0.88;0.60;;;20.60;47.80;;;;;;6216240;28;20026;-70
2021/12/02 05:23:05;;;;;;;1.00;0.60;;;20.60;47.80;;;;;;6218016;28;20022;-70
2021/12/02 05:26:06;;;;;;;1.00;0.57;;;20.60;47.70;;;;;;6207556;28;20057;-70
2021/12/02 05:29:06;;;;;;;1.00;0.73;;;20.60;47.60;;;;;;6218142;28;20030;-70
2021/12/02 05:32:07;;;;;;;0.43;0.40;;;20.60;47.50;;;;;;6206704;28;20037;-70
2021/12/02 05:35:08;;;;;;;1.10;0.50;;;20.60;47.50;;;;;;6218487;28;20372;-70
2021/12/02 05:38:09;;;;;;;0.82;0.60;;;20.60;47.50;;;;;;6218005;28;20056;-70
2021/12/02 05:41:13;;;;;;;1.15;0.50;;;20.60;47.40;;;;;;6218122;28;20022;-70
2021/12/02 05:44:14;;;;;;;1.20;0.50;;;20.70;47.50;;;;;;6233407;28;20026;-70
2021/12/02 05:47:15;;;;;;;0.50;0.35;;;20.70;47.50;;;;;;6216431;28;20774;-70
2021/12/02 05:50:15;;;;;;;1.13;0.70;;;20.60;47.40;;;;;;6217996;28;20018;-70
2021/12/02 05:53:17;;;;;;;0.70;0.50;;;20.70;47.50;;;;;;6221045;28;20105;-69
2021/12/02 05:56:18;;;;;;;1.10;0.52;;;20.70;47.40;;;;;;6222814;28;20022;-70
2021/12/02 05:59:19;;;;;;;1.48;0.60;;;20.70;47.40;;;;;;6222197;28;20037;-70
2021/12/02 06:02:19;;;;;;;0.90;0.50;;;20.70;47.40;;;;;;6206515;28;20034;-69
2021/12/02 06:05:20;;;;;;;0.63;0.60;;;20.70;47.30;;;;;;6222145;28;20038;-70
2021/12/02 06:08:21;;;;;;;0.75;0.47;;;20.70;47.30;;;;;;6222161;28;20041;-70
2021/12/02 06:11:23;;;;;;;0.80;0.50;;;20.70;47.30;;;;;;6222066;28;20026;-70
2021/12/02 06:14:23;;;;;;;0.65;0.40;;;20.70;47.20;;;;;;6209162;28;20042;-70
2021/12/02 06:17:24;;;;;;;0.55;0.50;;;20.70;47.20;;;;;;6197722;28;20021;-70
2021/12/02 06:20:24;;;;;;;0.95;0.50;;;20.70;47.30;;;;;;6220987;28;20041;-70
2021/12/02 06:23:25;;;;;;;1.00;0.70;;;20.70;47.40;;;;;;6214736;28;20027;-70
2021/12/02 06:26:26;;;;;;;0.65;0.50;;;20.70;47.50;;;;;;6211699;28;20441;-70
2021/12/02 06:29:26;;;;;;;1.00;0.35;;;20.70;47.50;;;;;;6221854;28;20018;-70
2021/12/02 06:32:27;;;;;;;0.93;0.50;;;20.70;47.60;;;;;;6196908;28;20018;-70
2021/12/02 06:35:28;;;;;;;1.45;0.70;;;20.70;47.60;;;;;;6196960;28;20029;-69
2021/12/02 06:38:29;;;;;;;0.80;0.60;;;20.80;47.80;;;;;;6197679;28;20022;-70
2021/12/02 06:41:30;;;;;;;1.00;0.50;;;20.70;47.70;;;;;;6199327;28;20391;-70
2021/12/02 06:44:32;;;;;;;0.65;0.50;;;20.80;47.90;;;;;;6221508;28;20514;-70
2021/12/02 06:47:42;;;;;;;0.47;0.40;;;20.70;47.80;;;;;;6221102;28;20084;-70
2021/12/02 06:50:43;;;;;;;0.80;0.70;;;20.80;47.90;;;;;;6219843;28;20483;-70
2021/12/02 06:53:44;;;;;;;0.75;0.55;;;20.80;47.90;;;;;;6202742;28;20073;-70
2021/12/02 06:56:44;;;;;;;1.08;0.70;;;20.80;48.00;;;;;;6198460;28;20487;-70
2021/12/02 06:59:45;;;;;;;0.95;0.50;;;20.80;48.00;;;;;;6209849;28;20034;-70
2021/12/02 07:02:46;;;;;;;0.40;0.40;;;20.80;48.00;;;;;;6200484;28;20126;-70
2021/12/02 07:05:47;;;;;;;1.00;0.57;;;20.80;47.90;;;;;;6201429;28;20053;-70
2021/12/02 07:08:47;;;;;;;0.88;0.60;;;20.80;48.00;;;;;;6203757;28;20483;-70
2021/12/02 07:11:49;;;;;;;0.77;0.40;;;20.80;48.10;;;;;;6199428;28;20026;-70
2021/12/02 07:14:49;;;;;;;0.80;0.50;;;20.80;48.10;;;;;;6207260;28;20570;-70
2021/12/02 07:17:51;;;;;;;3.33;0.73;;;20.80;48.10;;;;;;6205706;28;20065;-70
2021/12/02 07:20:51;;;;;;;1.55;0.70;;;20.80;48.10;;;;;;6221311;28;20033;-70
2021/12/02 07:23:52;;;;;;;1.17;0.50;;;20.80;48.10;;;;;;6208003;28;20034;-70
2021/12/02 07:26:53;;;;;;;0.50;0.43;;;20.80;48.10;;;;;;6213208;28;20089;-70
2021/12/02 07:29:53;;;;;;;0.70;0.43;;;20.80;48.20;;;;;;6198234;28;20258;-70
2021/12/02 07:32:57;;;;;;;1.02;0.70;;;20.80;48.10;;;;;;6211582;28;20022;-70
2021/12/02 07:35:57;;;;;;;0.98;0.60;;;20.80;48.10;;;;;;6222429;28;20026;-70
2021/12/02 07:39:07;;;;;;;0.50;0.50;;;20.80;48.10;;;;;;6221913;28;20053;-70
2021/12/02 07:42:09;;;;;;;0.88;0.68;;;20.80;48.10;;;;;;6213543;28;20022;-70
2021/12/02 07:45:09;;;;;;;0.73;0.50;;;20.80;48.10;;;;;;6197932;28;20061;-68
2021/12/02 07:48:11;;;;;;;3.33;0.47;;;20.80;48.10;;;;;;6213070;28;20022;-70
2021/12/02 07:51:17;;;;;;;1.08;0.50;;;20.80;48.20;;;;;;6222303;28;20045;-70
2021/12/02 07:54:18;;;;;;;1.63;0.50;;;20.80;47.90;;;;;;6198872;28;20105;-71
2021/12/02 07:57:19;;;;;;;1.58;0.60;;;20.80;47.90;;;;;;6197438;28;20026;-70
2021/12/02 08:00:26;;;;;;;2.05;0.60;;;20.80;48.00;;;;;;6197825;28;20431;-70
2021/12/02 08:03:27;;;;;;;1.45;0.60;;;20.80;48.00;;;;;;6212256;28;20048;-71
2021/12/02 08:06:28;;;;;;;0.60;0.38;;;20.80;48.00;;;;;;6220656;28;20085;-71
2021/12/02 08:09:29;;;;;;;1.10;0.55;;;20.80;47.90;;;;;;6221835;28;20109;-71
2021/12/02 08:12:30;;;;;;;0.88;0.60;;;20.80;47.90;;;;;;6221563;28;20037;-70
2021/12/02 08:15:31;;;;;;;2.63;0.38;;;20.80;48.00;;;;;;6199642;28;20101;-70
2021/12/02 08:18:32;;;;;;;1.02;0.55;;;20.80;48.00;;;;;;6205177;28;20483;-71
2021/12/02 08:21:33;;;;;;;0.80;0.50;;;20.80;48.00;;;;;;6220350;28;20387;-70
2021/12/02 08:24:34;;;;;;;1.17;0.60;;;20.80;47.90;;;;;;6204624;28;20030;-71
2021/12/02 08:27:35;;;;;;;0.70;0.50;;;20.80;47.90;;;;;;6225405;28;20483;-70
2021/12/02 08:30:37;;;;;;;0.70;0.55;;;20.80;48.00;;;;;;6212031;28;20026;-71
2021/12/02 08:33:38;;;;;;;1.30;0.57;;;20.80;48.00;;;;;;6217694;28;20469;-70
2021/12/02 08:36:45;;;;;;;0.85;0.50;;;20.80;47.80;;;;;;6221143;28;20026;-71
2021/12/02 08:39:47;;;;;;;2.53;0.50;;;20.80;47.90;;;;;;6220394;28;20022;-70
2021/12/02 08:42:48;;;;;;;1.05;0.60;;;20.80;47.90;;;;;;6208059;28;20022;-71
2021/12/02 08:45:49;;;;;;;0.50;0.40;;;20.80;47.90;;;;;;6196872;28;20031;-72
2021/12/02 08:48:52;;;;;;;0.88;0.50;;;20.80;47.90;;;;;;6217025;28;20072;-71
2021/12/02 08:51:52;;;;;;;0.40;0.40;;;20.80;48.00;;;;;;6218001;28;20026;-70
2021/12/02 08:54:54;;;;;;;0.77;0.68;;;20.80;47.90;;;;;;6196900;28;20030;-70
2021/12/02 08:57:54;;;;;;;0.40;0.38;;;20.80;47.90;;;;;;6196682;28;20030;-71
2021/12/02 09:00:55;;;;;;;0.70;0.50;;;20.80;47.90;;;;;;6196554;28;20023;-70
2021/12/02 09:03:56;;;;;;;0.60;0.50;;;20.80;48.00;;;;;;6214994;28;20061;-71
2021/12/02 09:06:57;;;;;;;0.70;0.50;;;20.80;48.00;;;;;;6219939;28;20038;-71
2021/12/02 09:09:58;;;;;;;0.55;0.45;;;20.80;48.00;;;;;;6196354;28;20022;-71
2021/12/02 09:12:58;;;;;;;0.65;0.50;;;20.80;47.90;;;;;;6196065;28;20109;-71
2021/12/02 09:15:59;;;;;;;1.42;0.70;;;20.80;47.90;;;;;;6196344;28;20064;-71
2021/12/02 09:19:00;;;;;;;0.40;0.40;;;20.80;47.90;;;;;;6196672;28;20029;-72
2021/12/02 09:22:00;;;;;;;1.38;0.50;;;20.80;48.00;;;;;;6196232;28;20030;-71
2021/12/02 09:25:02;;;;;;;0.88;0.63;;;20.80;48.00;;;;;;6215446;28;20034;-71
2021/12/02 09:28:03;;;;;;;0.73;0.40;;;20.80;48.00;;;;;;6199565;28;20057;-70
2021/12/02 09:31:05;;;;;;;0.68;0.50;;;20.80;47.90;;;;;;6200860;28;20022;-73
2021/12/02 09:34:05;;;;;;;1.52;0.80;;;20.80;47.90;;;;;;6225015;28;20110;-70
2021/12/02 09:37:06;;;;;;;1.13;0.50;;;20.80;48.00;;;;;;6225306;28;20021;-70
2021/12/02 09:40:09;;;;;;;1.17;0.65;;;20.80;48.00;;;;;;6223761;28;20030;-71
2021/12/02 09:43:12;;;;;;;1.42;0.70;;;20.80;47.90;;;;;;6224979;28;20030;-70
2021/12/02 09:46:13;;;;;;;1.13;0.60;;;20.80;47.90;;;;;;6224975;28;20399;-71
2021/12/02 09:49:16;;;;;;;1.10;0.70;;;20.80;47.90;;;;;;6224752;28;20034;-70
2021/12/02 09:52:26;;;;;;;0.95;0.70;;;20.80;48.00;;;;;;6218147;28;20034;-71
2021/12/02 09:55:39;;;;;;;1.20;0.70;;;20.80;47.90;;;;;;6200567;28;20387;-70
2021/12/02 09:58:40;;;;;;;0.60;0.50;;;20.80;48.50;;;;;;6216307;28;20037;-70
2021/12/02 10:01:43;;;;;;;0.50;0.50;;;20.80;47.90;;;;;;6224296;28;20479;-72
2021/12/02 10:04:51;;;;;;;0.82;0.52;;;20.80;47.80;;;;;;6224374;28;20545;-71
2021/12/02 10:07:56;;;;;;;1.70;0.70;;;20.80;47.90;;;;;;6215776;28;20641;-70
2021/12/02 10:11:05;;;;;;;0.88;0.57;;;20.80;48.00;;;;;;6199330;28;20057;-70
2021/12/02 10:14:31;;;;;;;0.70;0.60;;;20.80;48.00;;;;;;6200136;28;20035;-70
2021/12/02 10:17:42;;;;;;;1.75;0.60;;;20.80;48.00;;;;;;6207733;28;20158;-70
2021/12/02 10:20:46;;;;;;;1.08;0.80;;;20.80;47.80;;;;;;6176411;28;20102;-70
2021/12/02 10:23:47;;;;;;;2.05;0.60;;;20.80;48.00;;;;;;6204247;28;20032;-71
2021/12/02 10:26:57;;;;;;;0.73;0.60;;;20.80;47.90;;;;;;6206837;28;20029;-71
2021/12/02 10:29:57;;;;;;;0.98;0.63;;;20.80;47.90;;;;;;6178891;28;20153;-70
2021/12/02 10:32:58;;;;;;;0.98;0.68;;;20.80;47.90;;;;;;6187076;28;20031;-70
2021/12/02 10:36:00;;;;;;;0.55;0.47;;;20.80;47.90;;;;;;6176608;28;20105;-70
2021/12/02 10:39:20;;;;;;;1.30;0.70;;;20.80;47.90;;;;;;6198995;28;20056;-70
2021/12/02 10:42:23;;;;;;;0.80;0.55;;;20.80;48.00;;;;;;6200880;28;20106;-70
2021/12/02 10:45:30;;;;;;;0.73;0.50;;;20.80;47.80;;;;;;6200762;28;20014;-71
2021/12/02 10:48:50;;;;;;;1.10;0.60;;;20.80;47.90;;;;;;6200164;28;20431;-70
2021/12/02 10:51:56;;;;;;;0.80;0.57;;;20.80;47.90;;;;;;6200323;28;20120;-70
2021/12/02 10:55:01;;;;;;;0.80;0.60;;;20.80;47.90;;;;;;6199444;28;20122;-71
2021/12/02 10:58:03;;;;;;;1.10;0.70;;;20.80;47.90;;;;;;6211453;28;20062;-70
2021/12/02 11:01:03;;;;;;;1.10;0.50;;;20.80;47.80;;;;;;6222999;28;20341;-70
2021/12/02 11:04:05;;;;;;;0.98;0.63;;;20.80;47.90;;;;;;6204579;28;20031;-71
2021/12/02 11:07:11;;;;;;;1.60;0.70;;;20.80;47.90;;;;;;6198557;28;20035;-71
2021/12/02 11:10:14;;;;;;;2.10;0.90;;;20.80;47.90;;;;;;6198963;28;20206;-70
2021/12/02 11:13:26;;;;;;;1.25;0.65;;;20.80;47.90;;;;;;6199160;28;20488;-70
2021/12/02 11:16:34;;;;;;;1.02;0.70;;;20.80;47.80;;;;;;6198794;28;20125;-70
2021/12/02 11:19:36;;;;;;;0.95;0.68;;;20.80;47.80;;;;;;6198954;28;20034;-70
2021/12/02 11:22:37;;;;;;;1.20;0.80;;;20.80;47.90;;;;;;6199042;28;20511;-72
2021/12/02 11:25:59;;;;;;;0.82;0.70;;;20.80;47.80;;;;;;6199110;28;20027;-71
2021/12/02 11:29:00;;;;;;;0.77;0.55;;;20.80;47.90;;;;;;6199368;28;20438;-70
2021/12/02 11:32:01;;;;;;;0.90;0.60;;;20.80;47.80;;;;;;6189217;28;20043;-70
2021/12/02 11:35:32;;;;;;;1.00;0.60;;;20.80;47.80;;;;;;6174468;28;20058;-70
2021/12/02 11:38:34;;;;;;;2.05;0.95;;;20.80;47.90;;;;;;6197158;28;20077;-70
2021/12/02 11:41:34;;;;;;;1.35;0.50;;;20.80;47.80;;;;;;6198463;28;20026;-71
2021/12/02 11:44:35;;;;;;;1.10;0.52;;;20.80;47.90;;;;;;6197170;28;20053;-70
2021/12/02 11:47:37;;;;;;;0.85;0.60;;;20.80;47.90;;;;;;6198476;28;20097;-70
2021/12/02 11:50:38;;;;;;;0.57;0.47;;;20.80;47.80;;;;;;6198210;28;20105;-72
2021/12/02 11:53:39;;;;;;;0.88;0.60;;;20.80;47.90;;;;;;6181188;28;20022;-70
2021/12/02 11:56:39;;;;;;;1.08;0.70;;;20.80;48.00;;;;;;6176027;28;20053;-71
2021/12/02 11:59:40;;;;;;;0.80;0.70;;;20.80;47.90;;;;;;6222242;28;20026;-70
2021/12/02 12:02:55;;;;;;;0.90;0.60;;;20.80;47.80;;;;;;6222201;28;20033;-70
2021/12/02 12:06:01;;;;;;;1.70;0.70;;;20.80;47.90;;;;;;6222074;28;20084;-70
2021/12/02 12:09:13;;;;;;;0.98;0.60;;;20.80;47.80;;;;;;6222010;28;20412;-70
2021/12/02 12:12:14;;;;;;;1.20;0.50;;;20.80;47.80;;;;;;6220907;28;20037;-70
2021/12/02 12:15:32;;;;;;;0.88;0.70;;;20.80;47.90;;;;;;6195553;28;20034;-70
2021/12/02 12:18:39;;;;;;;1.80;0.73;;;20.80;48.60;;;;;;6187042;28;20029;-70
2021/12/02 12:21:44;;;;;;;0.80;0.60;;;20.80;47.90;;;;;;6172526;28;20420;-70
2021/12/02 12:24:49;;;;;;;1.15;0.60;;;20.80;47.90;;;;;;6191946;28;20121;-70
2021/12/02 12:27:57;;;;;;;1.33;0.70;;;20.80;47.90;;;;;;6205672;28;20622;-70
2021/12/02 12:31:05;;;;;;;1.92;0.60;;;20.80;47.90;;;;;;6185747;28;20086;-70
2021/12/02 12:34:29;;;;;;;0.75;0.60;;;20.80;47.90;;;;;;6170644;28;20027;-70
2021/12/02 12:40:42;;;;;;;0.80;0.70;;;20.80;48.00;;;;;;6196428;28;20033;-70
2021/12/02 12:43:52;;;;;;;1.33;0.52;;;20.80;48.00;;;;;;6215674;28;20022;-70
2021/12/02 12:46:55;;;;;;;0.60;0.60;;;20.80;48.00;;;;;;6216177;28;20026;-70
2021/12/02 12:50:31;;;;;;;1.00;0.70;;;20.80;48.00;;;;;;6196019;28;20511;-70
2021/12/02 12:53:34;;;;;;;0.80;0.80;;;20.80;48.70;;;;;;6206041;28;20301;-71
2021/12/02 12:56:39;;;;;;;0.75;0.60;;;20.80;47.90;;;;;;6220281;28;20092;-70
2021/12/02 12:59:54;;;;;;;1.13;0.70;;;20.80;47.90;;;;;;6219947;28;20026;-70
2021/12/02 13:02:57;;;;;;;;;;;20.80;47.90;;;;;;6209118;28;20038;-70
2021/12/02 13:06:08;;;;;;;1.38;0.90;;;20.80;47.90;;;;;;6195526;28;19905;-70
2021/12/02 13:09:08;;;;;;;1.10;0.57;;;20.90;48.00;;;;;;6195398;28;20050;-70
2021/12/02 13:12:12;;;;;;;1.20;0.70;;;20.80;47.90;;;;;;6195497;28;20480;-70
2021/12/02 13:15:17;;;;;;;0.70;0.60;;;20.80;47.90;;;;;;6159419;28;1054754;-70
2021/12/02 13:18:32;;;;;;;0.77;0.68;;;20.80;47.90;;;;;;6196765;28;20058;-71
2021/12/02 13:21:34;;;;;;;0.68;0.60;;;20.80;47.80;;;;;;6196874;28;20027;-70
2021/12/02 13:24:36;;;;;;;0.70;0.60;;;20.80;47.80;;;;;;6216628;28;20026;-70
2021/12/02 13:27:36;;;;;;;0.73;0.73;;;20.80;47.90;;;;;;6197658;28;20019;-70
2021/12/02 13:30:38;;;;;;;1.83;0.70;;;20.80;47.80;;;;;;6196855;28;20037;-70
2021/12/02 13:34:05;;;;;;;0.65;0.60;;;20.80;47.80;;;;;;6214372;28;20026;-70
2021/12/02 13:37:08;;;;;;;1.50;0.70;;;20.80;47.90;;;;;;6220549;28;20022;-70
2021/12/02 13:40:15;;;;;;;1.45;0.80;;;20.80;47.90;;;;;;6220800;28;20022;-70
2021/12/02 13:43:16;;;;;;;1.35;0.98;;;20.80;47.80;;;;;;6204564;28;20043;-70
2021/12/02 13:46:17;;;;;;;1.30;0.70;;;20.80;47.90;;;;;;6207049;28;20030;-70
2021/12/02 13:49:26;;;;;;;1.17;0.85;;;20.80;47.80;;;;;;6220530;28;20068;-71
2021/12/02 13:52:41;;;;;;;1.48;1.00;;;20.80;47.80;;;;;;6203021;28;20037;-70
2021/12/02 13:55:45;;;;;;;0.90;0.65;;;20.80;47.80;;;;;;6172239;28;20065;-70
2021/12/02 13:58:46;;;;;;;1.00;0.80;;;20.80;47.90;;;;;;6189740;28;20023;-70
2021/12/02 14:01:55;;;;;;;0.70;0.60;;;20.80;47.90;;;;;;6195804;28;20069;-70
2021/12/02 14:04:55;;;;;;;1.35;0.80;;;20.80;47.90;;;;;;6196241;28;20053;-70
2021/12/02 14:08:00;;;;;;;1.35;0.80;;;20.80;47.90;;;;;;6191292;28;20034;-71
2021/12/02 14:11:01;;;;;;;;;;;20.80;47.90;;;;;;6173094;28;20023;-70
2021/12/02 14:14:02;;;;;;;1.23;0.77;;;20.80;47.90;;;;;;6188152;28;20248;-70
2021/12/02 14:17:06;;;;;;;0.63;0.60;;;20.80;48.00;;;;;;6198809;28;20062;-70
2021/12/02 14:20:10;;;;;;;1.13;0.97;;;20.80;47.90;;;;;;6179437;28;20373;-70
2021/12/02 14:23:28;;;;;;;1.55;0.77;;;20.80;47.80;;;;;;6180207;28;20475;-70
2021/12/02 14:26:29;;;;;;;0.70;0.60;;;20.80;47.90;;;;;;6199196;28;20041;-70
2021/12/02 14:29:32;;;;;;;0.90;0.70;;;20.80;47.90;;;;;;6224535;28;20025;-70
2021/12/02 14:32:33;;;;;;;1.15;0.80;;;20.80;47.90;;;;;;6215487;28;20033;-70
2021/12/02 14:35:52;;;;;;;1.10;0.65;;;20.80;47.80;;;;;;6199843;28;20053;-71
2021/12/02 14:39:10;;;;;;;0.90;0.68;;;20.80;47.90;;;;;;6199738;28;20109;-71
2021/12/02 14:42:11;;;;;;;1.42;0.70;;;20.80;48.00;;;;;;6198428;28;20589;-70
2021/12/02 14:45:20;;;;;;;1.42;0.93;;;20.80;47.80;;;;;;6197942;28;20118;-70
2021/12/02 14:48:28;;;;;;;0.90;0.60;;;20.80;47.90;;;;;;6198223;28;20108;-70
2021/12/02 14:51:29;;;;;;;1.23;0.70;;;20.80;47.90;;;;;;6198629;28;20033;-71
2021/12/02 14:54:30;;;;;;;0.73;0.70;;;20.80;47.80;;;;;;6224359;28;20522;-70
2021/12/02 14:57:31;;;;;;;1.00;0.80;;;20.80;47.90;;;;;;6215636;28;20029;-70
2021/12/02 15:00:33;;;;;;;0.90;0.70;;;20.80;48.60;;;;;;6199308;28;20026;-70
2021/12/02 15:03:34;;;;;;;0.80;0.60;;;20.80;48.00;;;;;;6223062;28;20040;-70
2021/12/02 15:06:38;;;;;;;1.05;0.75;;;20.80;47.90;;;;;;6223343;28;20479;-71
2021/12/02 15:09:44;;;;;;;1.25;0.85;;;20.80;47.80;;;;;;6198668;28;20023;-71
2021/12/02 15:12:45;;;;;;;0.77;0.75;;;20.80;47.90;;;;;;6197695;28;20081;-71
2021/12/02 15:15:49;;;;;;;0.70;0.50;;;20.80;48.00;;;;;;6198899;28;20050;-71
2021/12/02 15:18:50;;;;;;;1.25;0.90;;;20.80;48.00;;;;;;6198561;28;20022;-71
2021/12/02 15:21:51;;;;;;;0.93;0.68;;;20.80;47.90;;;;;;6214179;28;20034;-71
2021/12/02 15:25:05;;;;;;;1.33;0.80;;;20.80;47.90;;;;;;6199734;28;20026;-71
2021/12/02 15:28:15;;;;;;;1.15;0.80;;;20.80;48.00;;;;;;6196327;28;20065;-70
2021/12/02 15:31:31;;;;;;;1.10;0.80;;;20.80;47.90;;;;;;6178910;28;20109;-70
2021/12/02 15:34:32;;;;;;;1.05;0.80;;;20.80;47.90;;;;;;6221351;28;20026;-71
2021/12/02 15:37:32;;;;;;;1.30;1.00;;;20.80;48.00;;;;;;6221276;28;20029;-71
2021/12/02 15:40:34;;;;;;;1.38;0.90;;;20.80;48.00;;;;;;6221573;28;20022;-70
2021/12/02 15:43:46;;;;;;;1.15;0.95;;;20.80;48.10;;;;;;6203652;28;20050;-70
2021/12/02 15:46:47;;;;;;;0.90;0.80;;;20.80;48.70;;;;;;6198045;28;20054;-70
2021/12/02 15:50:02;;;;;;;1.10;0.90;;;20.80;48.00;;;;;;6197913;28;20036;-71
2021/12/02 15:53:07;;;;;;;0.93;0.70;;;20.80;48.10;;;;;;6198329;28;20022;-71
2021/12/02 15:56:07;;;;;;;;;;;20.80;48.00;;;;;;6198330;28;20022;-70
2021/12/02 15:59:09;;;;;;;1.15;0.95;;;20.80;48.10;;;;;;6197805;28;19968;-70
2021/12/02 16:02:22;;;;;;;1.10;1.00;;;20.80;48.10;;;;;;6196700;28;20059;-71
2021/12/02 16:08:40;;;;;;;1.40;0.85;;;20.80;48.00;;;;;;6198156;28;20081;-71
2021/12/02 16:12:04;;;;;;;1.13;0.82;;;20.80;48.10;;;;;;6198226;28;20026;-70
2021/12/02 16:15:17;;;;;;;1.52;1.05;;;20.80;48.10;;;;;;6215231;28;20056;-70